Aviation Digital Data Service (ADDS)

Output produced by METARs form (2147 UTC 25 April 2015)
found at http://aviationweather.gov/adds/metars/
 
KAGC 251735Z 2518/2618 VRB04KT P6SM OVC060 
     FM252200 09005KT P6SM -SHRA OVC035 
     FM260400 03005KT P6SM OVC080 
     FM261400 35005KT P6SM BKN050